sensor_id;sensor_type;location;lat;lon;timestamp;P1;durP1;ratioP1;P2;durP2;ratioP2
53145;SDS011;39042;53.150;5.898;2023-08-17T00:01:47;6.72;;;4.40;;
53145;SDS011;39042;53.150;5.898;2023-08-17T00:04:13;10.40;;;5.23;;
53145;SDS011;39042;53.150;5.898;2023-08-17T00:06:40;9.52;;;5.03;;
53145;SDS011;39042;53.150;5.898;2023-08-17T00:09:05;6.72;;;4.15;;
53145;SDS011;39042;53.150;5.898;2023-08-17T00:11:32;11.07;;;5.63;;
53145;SDS011;39042;53.150;5.898;2023-08-17T00:13:58;13.35;;;5.18;;
53145;SDS011;39042;53.150;5.898;2023-08-17T00:16:24;9.80;;;4.57;;
53145;SDS011;39042;53.150;5.898;2023-08-17T00:18:50;10.68;;;6.25;;
53145;SDS011;39042;53.150;5.898;2023-08-17T00:21:16;7.45;;;5.60;;
53145;SDS011;39042;53.150;5.898;2023-08-17T00:23:42;8.88;;;5.15;;
53145;SDS011;39042;53.150;5.898;2023-08-17T00:26:08;8.52;;;4.70;;
53145;SDS011;39042;53.150;5.898;2023-08-17T00:28:34;11.02;;;5.22;;
53145;SDS011;39042;53.150;5.898;2023-08-17T00:31:00;10.88;;;5.25;;
53145;SDS011;39042;53.150;5.898;2023-08-17T00:33:27;7.80;;;5.25;;
53145;SDS011;39042;53.150;5.898;2023-08-17T00:35:53;11.93;;;5.63;;
53145;SDS011;39042;53.150;5.898;2023-08-17T00:38:18;10.88;;;5.05;;
53145;SDS011;39042;53.150;5.898;2023-08-17T00:40:44;9.05;;;5.35;;
53145;SDS011;39042;53.150;5.898;2023-08-17T00:43:10;8.80;;;4.80;;
53145;SDS011;39042;53.150;5.898;2023-08-17T00:45:36;6.90;;;4.87;;
53145;SDS011;39042;53.150;5.898;2023-08-17T00:48:02;8.50;;;5.50;;
53145;SDS011;39042;53.150;5.898;2023-08-17T00:50:32;8.05;;;5.50;;
53145;SDS011;39042;53.150;5.898;2023-08-17T00:53:01;9.90;;;5.45;;
53145;SDS011;39042;53.150;5.898;2023-08-17T00:57:53;10.13;;;5.22;;
53145;SDS011;39042;53.150;5.898;2023-08-17T01:00:22;9.05;;;5.28;;
53145;SDS011;39042;53.150;5.898;2023-08-17T01:02:49;8.52;;;4.78;;
53145;SDS011;39042;53.150;5.898;2023-08-17T01:05:17;8.63;;;4.75;;
53145;SDS011;39042;53.150;5.898;2023-08-17T01:07:43;11.73;;;5.60;;
53145;SDS011;39042;53.150;5.898;2023-08-17T01:10:09;9.02;;;5.07;;
53145;SDS011;39042;53.150;5.898;2023-08-17T01:13:00;11.45;;;5.55;;
53145;SDS011;39042;53.150;5.898;2023-08-17T01:15:35;9.80;;;5.18;;
53145;SDS011;39042;53.150;5.898;2023-08-17T01:20:49;8.57;;;5.65;;
53145;SDS011;39042;53.150;5.898;2023-08-17T01:23:15;9.90;;;6.18;;
53145;SDS011;39042;53.150;5.898;2023-08-17T01:25:41;9.45;;;5.93;;
53145;SDS011;39042;53.150;5.898;2023-08-17T01:28:07;7.93;;;5.45;;
53145;SDS011;39042;53.150;5.898;2023-08-17T01:30:35;10.20;;;4.90;;
53145;SDS011;39042;53.150;5.898;2023-08-17T01:33:11;9.70;;;6.40;;
53145;SDS011;39042;53.150;5.898;2023-08-17T01:38:20;10.80;;;5.65;;
53145;SDS011;39042;53.150;5.898;2023-08-17T01:40:48;9.65;;;5.53;;
53145;SDS011;39042;53.150;5.898;2023-08-17T01:43:16;11.70;;;6.05;;
53145;SDS011;39042;53.150;5.898;2023-08-17T01:45:43;10.60;;;5.80;;
53145;SDS011;39042;53.150;5.898;2023-08-17T01:48:09;8.27;;;4.93;;
53145;SDS011;39042;53.150;5.898;2023-08-17T01:50:36;7.63;;;4.95;;
53145;SDS011;39042;53.150;5.898;2023-08-17T01:53:02;11.27;;;5.68;;
53145;SDS011;39042;53.150;5.898;2023-08-17T01:55:28;10.88;;;4.93;;
53145;SDS011;39042;53.150;5.898;2023-08-17T01:57:53;8.57;;;5.03;;
53145;SDS011;39042;53.150;5.898;2023-08-17T02:00:19;9.75;;;4.60;;
53145;SDS011;39042;53.150;5.898;2023-08-17T02:02:45;12.45;;;4.95;;
53145;SDS011;39042;53.150;5.898;2023-08-17T02:05:11;11.33;;;4.80;;
53145;SDS011;39042;53.150;5.898;2023-08-17T02:07:37;10.47;;;4.57;;
53145;SDS011;39042;53.150;5.898;2023-08-17T02:10:03;10.47;;;5.40;;
53145;SDS011;39042;53.150;5.898;2023-08-17T02:12:29;6.78;;;4.30;;
53145;SDS011;39042;53.150;5.898;2023-08-17T02:14:55;11.38;;;4.85;;
53145;SDS011;39042;53.150;5.898;2023-08-17T02:17:21;8.17;;;4.53;;
53145;SDS011;39042;53.150;5.898;2023-08-17T02:19:47;9.45;;;3.80;;
53145;SDS011;39042;53.150;5.898;2023-08-17T02:22:13;12.70;;;4.88;;
53145;SDS011;39042;53.150;5.898;2023-08-17T02:24:39;9.23;;;4.35;;
53145;SDS011;39042;53.150;5.898;2023-08-17T02:27:06;8.15;;;4.15;;
53145;SDS011;39042;53.150;5.898;2023-08-17T02:29:34;8.23;;;4.03;;
53145;SDS011;39042;53.150;5.898;2023-08-17T02:32:00;9.57;;;4.90;;
53145;SDS011;39042;53.150;5.898;2023-08-17T02:34:26;10.80;;;4.30;;
53145;SDS011;39042;53.150;5.898;2023-08-17T02:36:52;8.38;;;4.18;;
53145;SDS011;39042;53.150;5.898;2023-08-17T02:39:17;8.30;;;4.20;;
53145;SDS011;39042;53.150;5.898;2023-08-17T02:41:43;9.13;;;4.83;;
53145;SDS011;39042;53.150;5.898;2023-08-17T02:44:10;9.23;;;4.30;;
53145;SDS011;39042;53.150;5.898;2023-08-17T02:46:36;13.63;;;4.80;;
53145;SDS011;39042;53.150;5.898;2023-08-17T02:49:01;9.90;;;4.40;;
53145;SDS011;39042;53.150;5.898;2023-08-17T02:51:27;10.15;;;4.50;;
53145;SDS011;39042;53.150;5.898;2023-08-17T02:53:53;9.35;;;4.53;;
53145;SDS011;39042;53.150;5.898;2023-08-17T02:56:19;8.98;;;4.45;;
53145;SDS011;39042;53.150;5.898;2023-08-17T02:58:49;7.25;;;4.40;;
53145;SDS011;39042;53.150;5.898;2023-08-17T03:01:15;9.95;;;4.57;;
53145;SDS011;39042;53.150;5.898;2023-08-17T03:03:41;8.70;;;4.27;;
53145;SDS011;39042;53.150;5.898;2023-08-17T03:06:10;7.63;;;4.78;;
53145;SDS011;39042;53.150;5.898;2023-08-17T03:08:38;6.65;;;4.70;;
53145;SDS011;39042;53.150;5.898;2023-08-17T03:11:04;7.45;;;4.72;;
53145;SDS011;39042;53.150;5.898;2023-08-17T03:13:32;8.60;;;5.13;;
53145;SDS011;39042;53.150;5.898;2023-08-17T03:15:58;10.57;;;5.55;;
53145;SDS011;39042;53.150;5.898;2023-08-17T03:18:24;10.13;;;5.30;;
53145;SDS011;39042;53.150;5.898;2023-08-17T03:20:50;10.23;;;5.77;;
53145;SDS011;39042;53.150;5.898;2023-08-17T03:23:16;14.63;;;6.05;;
53145;SDS011;39042;53.150;5.898;2023-08-17T03:25:42;13.97;;;5.40;;
53145;SDS011;39042;53.150;5.898;2023-08-17T03:28:08;13.75;;;4.75;;
53145;SDS011;39042;53.150;5.898;2023-08-17T03:30:34;8.13;;;4.57;;
53145;SDS011;39042;53.150;5.898;2023-08-17T03:33:00;7.75;;;4.35;;
53145;SDS011;39042;53.150;5.898;2023-08-17T03:35:25;11.75;;;4.95;;
53145;SDS011;39042;53.150;5.898;2023-08-17T03:37:51;9.00;;;3.63;;
53145;SDS011;39042;53.150;5.898;2023-08-17T03:40:17;7.73;;;3.87;;
53145;SDS011;39042;53.150;5.898;2023-08-17T03:42:43;7.70;;;3.97;;
53145;SDS011;39042;53.150;5.898;2023-08-17T03:45:09;6.55;;;3.83;;
53145;SDS011;39042;53.150;5.898;2023-08-17T03:47:35;5.50;;;3.53;;
53145;SDS011;39042;53.150;5.898;2023-08-17T03:50:01;6.37;;;3.53;;
53145;SDS011;39042;53.150;5.898;2023-08-17T03:52:27;9.10;;;4.43;;
53145;SDS011;39042;53.150;5.898;2023-08-17T03:54:53;7.97;;;3.43;;
53145;SDS011;39042;53.150;5.898;2023-08-17T03:57:19;6.78;;;3.65;;
53145;SDS011;39042;53.150;5.898;2023-08-17T03:59:44;6.45;;;3.13;;
53145;SDS011;39042;53.150;5.898;2023-08-17T04:02:11;5.05;;;3.22;;
53145;SDS011;39042;53.150;5.898;2023-08-17T04:04:37;10.30;;;3.27;;
53145;SDS011;39042;53.150;5.898;2023-08-17T04:07:04;4.85;;;2.65;;
53145;SDS011;39042;53.150;5.898;2023-08-17T04:09:32;6.95;;;2.90;;
53145;SDS011;39042;53.150;5.898;2023-08-17T04:11:58;4.78;;;3.00;;
53145;SDS011;39042;53.150;5.898;2023-08-17T04:14:24;6.28;;;2.83;;
53145;SDS011;39042;53.150;5.898;2023-08-17T04:16:51;5.32;;;2.78;;
53145;SDS011;39042;53.150;5.898;2023-08-17T04:19:18;7.72;;;3.03;;
53145;SDS011;39042;53.150;5.898;2023-08-17T04:21:44;5.97;;;3.22;;
53145;SDS011;39042;53.150;5.898;2023-08-17T04:24:10;4.90;;;3.08;;
53145;SDS011;39042;53.150;5.898;2023-08-17T04:26:35;6.35;;;2.92;;
53145;SDS011;39042;53.150;5.898;2023-08-17T04:29:01;7.30;;;3.53;;
53145;SDS011;39042;53.150;5.898;2023-08-17T04:31:27;5.72;;;3.33;;
53145;SDS011;39042;53.150;5.898;2023-08-17T04:34:00;6.63;;;3.70;;
53145;SDS011;39042;53.150;5.898;2023-08-17T04:36:26;5.30;;;2.97;;
53145;SDS011;39042;53.150;5.898;2023-08-17T04:38:53;5.50;;;3.47;;
53145;SDS011;39042;53.150;5.898;2023-08-17T04:41:19;5.85;;;3.75;;
53145;SDS011;39042;53.150;5.898;2023-08-17T04:43:46;9.05;;;3.53;;
53145;SDS011;39042;53.150;5.898;2023-08-17T04:46:14;7.72;;;3.15;;
53145;SDS011;39042;53.150;5.898;2023-08-17T04:48:41;8.98;;;3.55;;
53145;SDS011;39042;53.150;5.898;2023-08-17T04:51:07;6.65;;;2.88;;
53145;SDS011;39042;53.150;5.898;2023-08-17T04:53:33;9.45;;;3.38;;
53145;SDS011;39042;53.150;5.898;2023-08-17T04:55:59;6.68;;;2.67;;
53145;SDS011;39042;53.150;5.898;2023-08-17T04:58:25;5.43;;;2.63;;
53145;SDS011;39042;53.150;5.898;2023-08-17T05:00:51;6.55;;;3.08;;
53145;SDS011;39042;53.150;5.898;2023-08-17T05:03:17;3.72;;;3.03;;
53145;SDS011;39042;53.150;5.898;2023-08-17T05:05:43;7.40;;;2.40;;
53145;SDS011;39042;53.150;5.898;2023-08-17T05:08:10;4.35;;;2.00;;
53145;SDS011;39042;53.150;5.898;2023-08-17T05:10:36;6.55;;;1.80;;
53145;SDS011;39042;53.150;5.898;2023-08-17T05:13:02;8.60;;;2.45;;
53145;SDS011;39042;53.150;5.898;2023-08-17T05:15:28;5.75;;;1.63;;
53145;SDS011;39042;53.150;5.898;2023-08-17T05:17:55;4.03;;;1.27;;
53145;SDS011;39042;53.150;5.898;2023-08-17T05:20:22;5.18;;;1.63;;
53145;SDS011;39042;53.150;5.898;2023-08-17T05:22:48;2.97;;;1.30;;
53145;SDS011;39042;53.150;5.898;2023-08-17T05:25:14;4.07;;;1.30;;
53145;SDS011;39042;53.150;5.898;2023-08-17T05:27:40;6.85;;;1.33;;
53145;SDS011;39042;53.150;5.898;2023-08-17T05:30:07;3.35;;;1.10;;
53145;SDS011;39042;53.150;5.898;2023-08-17T05:32:33;2.65;;;0.90;;
53145;SDS011;39042;53.150;5.898;2023-08-17T05:34:59;2.75;;;1.00;;
53145;SDS011;39042;53.150;5.898;2023-08-17T05:37:25;3.35;;;0.80;;
53145;SDS011;39042;53.150;5.898;2023-08-17T05:39:51;2.45;;;1.02;;
53145;SDS011;39042;53.150;5.898;2023-08-17T05:42:17;2.80;;;1.00;;
53145;SDS011;39042;53.150;5.898;2023-08-17T05:44:44;4.70;;;1.03;;
53145;SDS011;39042;53.150;5.898;2023-08-17T05:47:10;2.55;;;0.95;;
53145;SDS011;39042;53.150;5.898;2023-08-17T05:49:36;3.08;;;0.85;;
53145;SDS011;39042;53.150;5.898;2023-08-17T05:52:03;2.53;;;0.60;;
53145;SDS011;39042;53.150;5.898;2023-08-17T05:54:29;3.60;;;1.10;;
53145;SDS011;39042;53.150;5.898;2023-08-17T05:56:54;4.37;;;1.30;;
53145;SDS011;39042;53.150;5.898;2023-08-17T05:59:20;5.55;;;0.60;;
53145;SDS011;39042;53.150;5.898;2023-08-17T06:01:46;3.92;;;0.90;;
53145;SDS011;39042;53.150;5.898;2023-08-17T06:04:12;2.77;;;0.60;;
53145;SDS011;39042;53.150;5.898;2023-08-17T06:06:38;3.40;;;0.60;;
53145;SDS011;39042;53.150;5.898;2023-08-17T06:09:03;4.72;;;0.70;;
53145;SDS011;39042;53.150;5.898;2023-08-17T06:11:29;2.33;;;0.40;;
53145;SDS011;39042;53.150;5.898;2023-08-17T06:13:55;2.73;;;0.77;;
53145;SDS011;39042;53.150;5.898;2023-08-17T06:16:21;2.33;;;0.60;;
53145;SDS011;39042;53.150;5.898;2023-08-17T06:18:47;2.08;;;0.60;;
53145;SDS011;39042;53.150;5.898;2023-08-17T06:21:13;3.95;;;0.75;;
53145;SDS011;39042;53.150;5.898;2023-08-17T06:23:39;3.50;;;0.93;;
53145;SDS011;39042;53.150;5.898;2023-08-17T06:26:04;2.17;;;0.73;;
53145;SDS011;39042;53.150;5.898;2023-08-17T06:28:30;3.93;;;0.50;;
53145;SDS011;39042;53.150;5.898;2023-08-17T06:30:56;3.72;;;0.60;;
53145;SDS011;39042;53.150;5.898;2023-08-17T06:33:22;3.75;;;0.50;;
53145;SDS011;39042;53.150;5.898;2023-08-17T06:35:48;3.17;;;0.70;;
53145;SDS011;39042;53.150;5.898;2023-08-17T06:38:15;3.65;;;0.52;;
53145;SDS011;39042;53.150;5.898;2023-08-17T06:40:41;1.90;;;0.40;;
53145;SDS011;39042;53.150;5.898;2023-08-17T06:43:06;3.85;;;0.80;;
53145;SDS011;39042;53.150;5.898;2023-08-17T06:45:33;3.03;;;0.80;;
53145;SDS011;39042;53.150;5.898;2023-08-17T06:47:59;2.72;;;0.45;;
53145;SDS011;39042;53.150;5.898;2023-08-17T06:50:25;2.28;;;0.40;;
53145;SDS011;39042;53.150;5.898;2023-08-17T06:55:17;1.58;;;0.40;;
53145;SDS011;39042;53.150;5.898;2023-08-17T06:57:43;2.33;;;0.65;;
53145;SDS011;39042;53.150;5.898;2023-08-17T07:00:10;4.65;;;0.50;;
53145;SDS011;39042;53.150;5.898;2023-08-17T07:02:37;3.25;;;0.50;;
53145;SDS011;39042;53.150;5.898;2023-08-17T07:05:03;5.28;;;0.47;;
53145;SDS011;39042;53.150;5.898;2023-08-17T07:07:29;4.57;;;0.47;;
53145;SDS011;39042;53.150;5.898;2023-08-17T07:09:57;3.45;;;0.38;;
53145;SDS011;39042;53.150;5.898;2023-08-17T07:12:23;2.75;;;0.40;;
53145;SDS011;39042;53.150;5.898;2023-08-17T07:14:49;1.85;;;0.63;;
53145;SDS011;39042;53.150;5.898;2023-08-17T07:17:15;3.13;;;0.50;;
53145;SDS011;39042;53.150;5.898;2023-08-17T07:19:41;2.92;;;0.30;;
53145;SDS011;39042;53.150;5.898;2023-08-17T07:22:07;2.67;;;0.40;;
53145;SDS011;39042;53.150;5.898;2023-08-17T07:24:33;1.60;;;0.30;;
53145;SDS011;39042;53.150;5.898;2023-08-17T07:26:59;2.25;;;0.30;;
53145;SDS011;39042;53.150;5.898;2023-08-17T07:29:25;2.83;;;0.40;;
53145;SDS011;39042;53.150;5.898;2023-08-17T07:31:50;2.15;;;0.35;;
53145;SDS011;39042;53.150;5.898;2023-08-17T07:34:16;1.83;;;0.30;;
53145;SDS011;39042;53.150;5.898;2023-08-17T07:36:42;2.55;;;0.60;;
53145;SDS011;39042;53.150;5.898;2023-08-17T07:39:08;3.08;;;0.50;;
53145;SDS011;39042;53.150;5.898;2023-08-17T07:41:34;2.05;;;0.50;;
53145;SDS011;39042;53.150;5.898;2023-08-17T07:44:00;2.88;;;0.45;;
53145;SDS011;39042;53.150;5.898;2023-08-17T07:46:26;4.60;;;0.40;;
53145;SDS011;39042;53.150;5.898;2023-08-17T07:48:52;2.33;;;0.30;;
53145;SDS011;39042;53.150;5.898;2023-08-17T07:51:17;1.33;;;0.35;;
53145;SDS011;39042;53.150;5.898;2023-08-17T07:53:43;1.92;;;0.28;;
53145;SDS011;39042;53.150;5.898;2023-08-17T07:56:09;2.15;;;0.35;;
53145;SDS011;39042;53.150;5.898;2023-08-17T07:58:35;2.05;;;0.20;;
53145;SDS011;39042;53.150;5.898;2023-08-17T08:01:01;7.10;;;2.03;;
53145;SDS011;39042;53.150;5.898;2023-08-17T08:03:27;4.25;;;0.80;;
53145;SDS011;39042;53.150;5.898;2023-08-17T08:05:52;1.73;;;0.52;;
53145;SDS011;39042;53.150;5.898;2023-08-17T08:08:18;2.05;;;0.50;;
53145;SDS011;39042;53.150;5.898;2023-08-17T08:10:45;3.60;;;0.70;;
53145;SDS011;39042;53.150;5.898;2023-08-17T08:13:11;4.45;;;0.95;;
53145;SDS011;39042;53.150;5.898;2023-08-17T08:15:37;3.22;;;0.85;;
53145;SDS011;39042;53.150;5.898;2023-08-17T08:18:03;3.50;;;0.45;;
53145;SDS011;39042;53.150;5.898;2023-08-17T08:20:29;3.75;;;0.93;;
53145;SDS011;39042;53.150;5.898;2023-08-17T08:22:55;2.38;;;0.60;;
53145;SDS011;39042;53.150;5.898;2023-08-17T08:25:20;3.20;;;0.40;;
53145;SDS011;39042;53.150;5.898;2023-08-17T08:27:46;3.85;;;0.38;;
53145;SDS011;39042;53.150;5.898;2023-08-17T08:30:12;3.40;;;0.45;;
53145;SDS011;39042;53.150;5.898;2023-08-17T08:32:38;2.42;;;0.30;;
53145;SDS011;39042;53.150;5.898;2023-08-17T08:35:04;3.30;;;0.40;;
53145;SDS011;39042;53.150;5.898;2023-08-17T08:37:30;2.67;;;0.60;;
53145;SDS011;39042;53.150;5.898;2023-08-17T08:39:56;2.05;;;0.40;;
53145;SDS011;39042;53.150;5.898;2023-08-17T08:42:22;2.45;;;0.30;;
53145;SDS011;39042;53.150;5.898;2023-08-17T08:44:50;1.05;;;0.30;;
53145;SDS011;39042;53.150;5.898;2023-08-17T08:47:16;2.75;;;0.20;;
53145;SDS011;39042;53.150;5.898;2023-08-17T08:49:50;4.72;;;0.55;;
53145;SDS011;39042;53.150;5.898;2023-08-17T08:52:26;6.85;;;0.43;;
53145;SDS011;39042;53.150;5.898;2023-08-17T08:55:19;1.63;;;0.20;;
53145;SDS011;39042;53.150;5.898;2023-08-17T08:57:48;4.43;;;0.30;;
53145;SDS011;39042;53.150;5.898;2023-08-17T09:00:15;3.55;;;0.40;;
53145;SDS011;39042;53.150;5.898;2023-08-17T09:02:43;2.95;;;0.40;;
53145;SDS011;39042;53.150;5.898;2023-08-17T09:05:10;1.33;;;0.22;;
53145;SDS011;39042;53.150;5.898;2023-08-17T09:07:37;4.20;;;0.30;;
53145;SDS011;39042;53.150;5.898;2023-08-17T09:10:04;2.58;;;0.30;;
53145;SDS011;39042;53.150;5.898;2023-08-17T09:12:30;3.55;;;0.20;;
53145;SDS011;39042;53.150;5.898;2023-08-17T09:14:56;3.58;;;0.45;;
53145;SDS011;39042;53.150;5.898;2023-08-17T09:17:26;1.80;;;0.40;;
53145;SDS011;39042;53.150;5.898;2023-08-17T09:19:53;2.47;;;0.20;;
53145;SDS011;39042;53.150;5.898;2023-08-17T09:22:26;3.88;;;0.40;;
53145;SDS011;39042;53.150;5.898;2023-08-17T09:25:04;1.20;;;0.30;;
53145;SDS011;39042;53.150;5.898;2023-08-17T09:27:31;6.43;;;0.85;;
53145;SDS011;39042;53.150;5.898;2023-08-17T09:30:02;2.83;;;0.50;;
53145;SDS011;39042;53.150;5.898;2023-08-17T09:32:32;3.25;;;0.60;;
53145;SDS011;39042;53.150;5.898;2023-08-17T09:35:02;2.03;;;0.25;;
53145;SDS011;39042;53.150;5.898;2023-08-17T09:37:30;4.40;;;0.30;;
53145;SDS011;39042;53.150;5.898;2023-08-17T09:39:56;3.97;;;0.40;;
53145;SDS011;39042;53.150;5.898;2023-08-17T09:42:22;1.52;;;0.25;;
53145;SDS011;39042;53.150;5.898;2023-08-17T09:44:51;3.25;;;0.52;;
53145;SDS011;39042;53.150;5.898;2023-08-17T09:47:17;4.28;;;0.40;;
53145;SDS011;39042;53.150;5.898;2023-08-17T09:49:51;4.60;;;0.40;;
53145;SDS011;39042;53.150;5.898;2023-08-17T09:52:18;1.92;;;0.65;;
53145;SDS011;39042;53.150;5.898;2023-08-17T09:54:45;4.65;;;0.32;;
53145;SDS011;39042;53.150;5.898;2023-08-17T09:57:12;3.65;;;0.82;;
53145;SDS011;39042;53.150;5.898;2023-08-17T09:59:38;3.03;;;0.75;;
53145;SDS011;39042;53.150;5.898;2023-08-17T10:02:04;7.32;;;0.88;;
53145;SDS011;39042;53.150;5.898;2023-08-17T10:04:44;1.65;;;0.45;;
53145;SDS011;39042;53.150;5.898;2023-08-17T10:07:15;4.20;;;0.77;;
53145;SDS011;39042;53.150;5.898;2023-08-17T10:09:45;3.25;;;0.52;;
53145;SDS011;39042;53.150;5.898;2023-08-17T10:12:19;2.38;;;0.40;;
53145;SDS011;39042;53.150;5.898;2023-08-17T10:14:55;4.70;;;0.50;;
53145;SDS011;39042;53.150;5.898;2023-08-17T10:17:27;3.72;;;0.73;;
53145;SDS011;39042;53.150;5.898;2023-08-17T10:19:59;4.20;;;0.52;;
53145;SDS011;39042;53.150;5.898;2023-08-17T10:25:10;2.72;;;0.52;;
53145;SDS011;39042;53.150;5.898;2023-08-17T10:27:39;2.38;;;0.60;;
53145;SDS011;39042;53.150;5.898;2023-08-17T10:30:07;3.13;;;0.40;;
53145;SDS011;39042;53.150;5.898;2023-08-17T10:32:37;4.82;;;0.50;;
53145;SDS011;39042;53.150;5.898;2023-08-17T10:35:04;4.40;;;0.88;;
53145;SDS011;39042;53.150;5.898;2023-08-17T10:37:31;5.10;;;0.63;;
53145;SDS011;39042;53.150;5.898;2023-08-17T10:39:57;4.18;;;0.40;;
53145;SDS011;39042;53.150;5.898;2023-08-17T10:42:34;6.72;;;0.75;;
53145;SDS011;39042;53.150;5.898;2023-08-17T10:45:01;3.67;;;0.40;;
53145;SDS011;39042;53.150;5.898;2023-08-17T10:47:47;3.78;;;0.50;;
53145;SDS011;39042;53.150;5.898;2023-08-17T10:50:23;3.92;;;0.73;;
53145;SDS011;39042;53.150;5.898;2023-08-17T10:52:50;3.17;;;0.60;;
53145;SDS011;39042;53.150;5.898;2023-08-17T10:55:34;3.13;;;0.40;;
53145;SDS011;39042;53.150;5.898;2023-08-17T10:58:01;3.65;;;0.55;;
53145;SDS011;39042;53.150;5.898;2023-08-17T11:00:34;1.70;;;0.40;;
53145;SDS011;39042;53.150;5.898;2023-08-17T11:03:05;3.00;;;0.50;;
53145;SDS011;39042;53.150;5.898;2023-08-17T11:05:36;5.53;;;0.65;;
53145;SDS011;39042;53.150;5.898;2023-08-17T11:13:37;4.28;;;0.85;;
53145;SDS011;39042;53.150;5.898;2023-08-17T11:16:04;4.82;;;0.40;;
53145;SDS011;39042;53.150;5.898;2023-08-17T11:18:31;4.90;;;0.68;;
53145;SDS011;39042;53.150;5.898;2023-08-17T11:20:58;3.38;;;0.70;;
53145;SDS011;39042;53.150;5.898;2023-08-17T11:23:24;3.10;;;0.63;;
53145;SDS011;39042;53.150;5.898;2023-08-17T11:25:54;4.35;;;0.50;;
53145;SDS011;39042;53.150;5.898;2023-08-17T11:28:20;3.17;;;0.47;;
53145;SDS011;39042;53.150;5.898;2023-08-17T11:30:55;5.43;;;0.60;;
53145;SDS011;39042;53.150;5.898;2023-08-17T11:33:25;4.72;;;1.13;;
53145;SDS011;39042;53.150;5.898;2023-08-17T11:35:54;5.18;;;0.93;;
53145;SDS011;39042;53.150;5.898;2023-08-17T11:38:20;4.07;;;0.90;;
53145;SDS011;39042;53.150;5.898;2023-08-17T11:40:47;2.78;;;0.80;;
53145;SDS011;39042;53.150;5.898;2023-08-17T11:43:13;3.03;;;0.50;;
53145;SDS011;39042;53.150;5.898;2023-08-17T11:45:39;7.25;;;0.77;;
53145;SDS011;39042;53.150;5.898;2023-08-17T11:48:05;2.75;;;0.55;;
53145;SDS011;39042;53.150;5.898;2023-08-17T11:50:31;5.85;;;1.02;;
53145;SDS011;39042;53.150;5.898;2023-08-17T11:53:00;3.45;;;0.73;;
53145;SDS011;39042;53.150;5.898;2023-08-17T11:55:26;2.30;;;0.60;;
53145;SDS011;39042;53.150;5.898;2023-08-17T11:57:52;2.55;;;0.77;;
53145;SDS011;39042;53.150;5.898;2023-08-17T12:00:19;5.97;;;0.70;;
53145;SDS011;39042;53.150;5.898;2023-08-17T12:02:50;3.03;;;0.80;;
53145;SDS011;39042;53.150;5.898;2023-08-17T12:05:23;3.10;;;0.70;;
53145;SDS011;39042;53.150;5.898;2023-08-17T12:07:52;3.83;;;0.60;;
53145;SDS011;39042;53.150;5.898;2023-08-17T12:10:19;5.10;;;0.80;;
53145;SDS011;39042;53.150;5.898;2023-08-17T12:12:48;7.22;;;0.70;;
53145;SDS011;39042;53.150;5.898;2023-08-17T12:15:17;5.10;;;1.15;;
53145;SDS011;39042;53.150;5.898;2023-08-17T12:17:45;3.63;;;0.80;;
53145;SDS011;39042;53.150;5.898;2023-08-17T12:20:15;2.20;;;0.60;;
53145;SDS011;39042;53.150;5.898;2023-08-17T12:22:42;4.85;;;0.90;;
53145;SDS011;39042;53.150;5.898;2023-08-17T12:25:08;2.08;;;0.75;;
53145;SDS011;39042;53.150;5.898;2023-08-17T12:30:00;2.67;;;0.75;;
53145;SDS011;39042;53.150;5.898;2023-08-17T12:32:26;3.40;;;0.88;;
53145;SDS011;39042;53.150;5.898;2023-08-17T12:34:52;5.80;;;1.00;;
53145;SDS011;39042;53.150;5.898;2023-08-17T12:37:19;5.65;;;1.17;;
53145;SDS011;39042;53.150;5.898;2023-08-17T12:39:48;5.25;;;1.20;;
53145;SDS011;39042;53.150;5.898;2023-08-17T12:42:14;6.03;;;0.90;;
53145;SDS011;39042;53.150;5.898;2023-08-17T12:44:43;6.38;;;0.80;;
53145;SDS011;39042;53.150;5.898;2023-08-17T12:47:09;5.25;;;0.95;;
53145;SDS011;39042;53.150;5.898;2023-08-17T12:52:01;5.43;;;1.38;;
53145;SDS011;39042;53.150;5.898;2023-08-17T12:54:27;3.33;;;1.40;;
53145;SDS011;39042;53.150;5.898;2023-08-17T12:56:53;4.93;;;1.15;;
53145;SDS011;39042;53.150;5.898;2023-08-17T12:59:19;4.55;;;1.27;;
53145;SDS011;39042;53.150;5.898;2023-08-17T13:01:44;3.95;;;0.90;;
53145;SDS011;39042;53.150;5.898;2023-08-17T13:04:10;4.50;;;1.33;;
53145;SDS011;39042;53.150;5.898;2023-08-17T13:06:36;6.05;;;1.42;;
53145;SDS011;39042;53.150;5.898;2023-08-17T13:09:02;8.27;;;1.17;;
53145;SDS011;39042;53.150;5.898;2023-08-17T13:11:28;3.47;;;1.38;;
53145;SDS011;39042;53.150;5.898;2023-08-17T13:13:54;5.40;;;0.90;;
53145;SDS011;39042;53.150;5.898;2023-08-17T13:16:20;3.45;;;1.30;;
53145;SDS011;39042;53.150;5.898;2023-08-17T13:18:48;6.45;;;1.10;;
53145;SDS011;39042;53.150;5.898;2023-08-17T13:21:14;5.40;;;1.50;;
53145;SDS011;39042;53.150;5.898;2023-08-17T13:23:41;6.80;;;1.33;;
53145;SDS011;39042;53.150;5.898;2023-08-17T13:26:07;6.75;;;1.02;;
53145;SDS011;39042;53.150;5.898;2023-08-17T13:28:33;5.30;;;1.38;;
53145;SDS011;39042;53.150;5.898;2023-08-17T13:30:58;5.15;;;1.10;;
53145;SDS011;39042;53.150;5.898;2023-08-17T13:33:24;5.53;;;1.73;;
53145;SDS011;39042;53.150;5.898;2023-08-17T13:35:50;4.75;;;1.38;;
53145;SDS011;39042;53.150;5.898;2023-08-17T13:38:16;4.97;;;1.25;;
53145;SDS011;39042;53.150;5.898;2023-08-17T13:40:42;2.42;;;1.00;;
53145;SDS011;39042;53.150;5.898;2023-08-17T13:43:08;6.55;;;1.73;;
53145;SDS011;39042;53.150;5.898;2023-08-17T13:45:40;6.35;;;1.55;;
53145;SDS011;39042;53.150;5.898;2023-08-17T13:48:06;2.42;;;1.33;;
53145;SDS011;39042;53.150;5.898;2023-08-17T13:50:33;5.95;;;1.27;;
53145;SDS011;39042;53.150;5.898;2023-08-17T13:53:02;5.38;;;1.10;;
53145;SDS011;39042;53.150;5.898;2023-08-17T13:55:28;4.60;;;1.35;;
53145;SDS011;39042;53.150;5.898;2023-08-17T13:57:54;6.03;;;1.80;;
53145;SDS011;39042;53.150;5.898;2023-08-17T14:00:23;4.43;;;1.40;;
53145;SDS011;39042;53.150;5.898;2023-08-17T14:02:50;3.97;;;1.40;;
53145;SDS011;39042;53.150;5.898;2023-08-17T14:05:16;3.90;;;1.27;;
53145;SDS011;39042;53.150;5.898;2023-08-17T14:07:42;5.50;;;1.17;;
53145;SDS011;39042;53.150;5.898;2023-08-17T14:10:08;6.07;;;1.10;;
53145;SDS011;39042;53.150;5.898;2023-08-17T14:12:34;5.40;;;1.75;;
53145;SDS011;39042;53.150;5.898;2023-08-17T14:15:00;4.85;;;1.20;;
53145;SDS011;39042;53.150;5.898;2023-08-17T14:17:26;6.22;;;1.25;;
53145;SDS011;39042;53.150;5.898;2023-08-17T14:19:52;2.97;;;0.80;;
53145;SDS011;39042;53.150;5.898;2023-08-17T14:22:17;3.78;;;0.60;;
53145;SDS011;39042;53.150;5.898;2023-08-17T14:24:43;4.05;;;1.20;;
53145;SDS011;39042;53.150;5.898;2023-08-17T14:27:09;4.78;;;1.40;;
53145;SDS011;39042;53.150;5.898;2023-08-17T14:29:35;3.22;;;1.08;;
53145;SDS011;39042;53.150;5.898;2023-08-17T14:32:00;2.80;;;0.90;;
53145;SDS011;39042;53.150;5.898;2023-08-17T14:34:26;4.50;;;1.20;;
53145;SDS011;39042;53.150;5.898;2023-08-17T14:36:52;5.55;;;1.40;;
53145;SDS011;39042;53.150;5.898;2023-08-17T14:39:18;3.25;;;0.90;;
53145;SDS011;39042;53.150;5.898;2023-08-17T14:41:44;3.42;;;0.88;;
53145;SDS011;39042;53.150;5.898;2023-08-17T14:44:10;5.85;;;0.88;;
53145;SDS011;39042;53.150;5.898;2023-08-17T14:46:35;6.10;;;0.75;;
53145;SDS011;39042;53.150;5.898;2023-08-17T14:49:03;3.80;;;0.90;;
53145;SDS011;39042;53.150;5.898;2023-08-17T14:51:29;6.68;;;1.15;;
53145;SDS011;39042;53.150;5.898;2023-08-17T14:53:55;2.97;;;0.70;;
53145;SDS011;39042;53.150;5.898;2023-08-17T14:56:21;5.22;;;1.23;;
53145;SDS011;39042;53.150;5.898;2023-08-17T14:58:48;6.60;;;1.38;;
53145;SDS011;39042;53.150;5.898;2023-08-17T15:01:15;3.17;;;1.02;;
53145;SDS011;39042;53.150;5.898;2023-08-17T15:03:40;7.32;;;1.30;;
53145;SDS011;39042;53.150;5.898;2023-08-17T15:06:06;7.03;;;1.67;;
53145;SDS011;39042;53.150;5.898;2023-08-17T15:08:33;6.80;;;1.27;;